Decoded Metar for KHNZ (HENDERSON/OXFORD in NC, USA) (IATA:HNZ) | Meteo·Mobile Aviation Weather
aviador You're here:

KHNZ Decoded Metar

HENDERSON/OXFORD in NC, USA
Report Time2018-12-19 05:05:00
UTC Time2018-12-19 05:20:40
Flight Rules vfr VFR
WindCalm
Visibility9999 m
Phenomena:N/A
Clouds:N/A
Expected CloudBase > 800 ft AGL from Temp-Dew spread
CeilingNone
Temp-2°C (ISA -16)
Dew Point-4°C (86% RH)
AAT-4.5°C
QNH1022 hPa
Density Alt-1,670 ft
Elevation528 ft
Report Wrong Elevation
Raw Report
METAR KHNZ 190505Z AUTO 00000KT 10SM CLR M02/M04 A3019 RMK AO2 T10191036=

Extra information for KHNZ:More info

Metar Taf Metar & Taf Last 4 Metars F.Rules Stats Wind Profile Meteogram Temp Stats Airport Information Weather charts Add Link Nearby VenuesMetar ALERT Operation Metar Decoded Social comments

AIRNAV info for KHNZ